createdAt,value
2023-04-26T00:03:18.992Z,1.75
2023-04-26T00:08:20.441Z,2.17
2023-04-26T00:13:22.000Z,2.05
2023-04-26T00:18:23.700Z,1.77
2023-04-26T00:23:25.132Z,1.70
2023-04-26T00:28:26.455Z,2.10
2023-04-26T00:33:27.798Z,2.08
2023-04-26T00:38:29.213Z,1.83
2023-04-26T00:43:30.649Z,2.25
2023-04-26T00:48:33.107Z,2.15
2023-04-26T00:53:35.548Z,1.90
2023-04-26T00:58:37.886Z,2.00
2023-04-26T01:03:39.362Z,2.03
2023-04-26T01:08:41.440Z,2.15
2023-04-26T01:13:43.453Z,2.30
2023-04-26T01:18:50.479Z,2.30
2023-04-26T01:23:52.866Z,2.53
2023-04-26T01:28:54.424Z,2.38
2023-04-26T01:33:56.428Z,2.20
2023-04-26T01:38:57.964Z,2.03
2023-04-26T01:43:59.349Z,2.33
2023-04-26T01:49:01.206Z,3.13
2023-04-26T01:54:03.101Z,2.35
2023-04-26T01:59:04.428Z,2.90
2023-04-26T02:04:06.312Z,2.83
2023-04-26T02:09:09.438Z,2.90
2023-04-26T02:14:10.958Z,2.10
2023-04-26T02:19:12.581Z,2.22
2023-04-26T02:24:14.071Z,2.70
2023-04-26T02:29:15.419Z,2.65
2023-04-26T02:34:17.671Z,3.08
2023-04-26T02:39:19.348Z,3.90
2023-04-26T02:44:20.814Z,3.22
2023-04-26T02:49:22.203Z,2.60
2023-04-26T02:54:23.621Z,2.03
2023-04-26T02:59:25.127Z,2.17
2023-04-26T03:04:26.470Z,1.90
2023-04-26T03:09:27.886Z,2.97
2023-04-26T03:14:29.196Z,2.90
2023-04-26T03:19:30.610Z,3.10
2023-04-26T03:24:32.708Z,2.80
2023-04-26T03:29:34.104Z,2.47
2023-04-26T03:34:35.706Z,2.60
2023-04-26T03:39:37.017Z,2.28
2023-04-26T03:44:38.395Z,2.92
2023-04-26T03:49:39.723Z,2.78
2023-04-26T03:54:41.002Z,3.00
2023-04-26T03:59:42.375Z,3.95
2023-04-26T04:04:43.951Z,3.03
2023-04-26T04:09:45.648Z,2.85
2023-04-26T04:14:47.344Z,3.15
2023-04-26T04:19:48.770Z,3.45
2023-04-26T04:24:50.157Z,3.50
2023-04-26T04:29:51.878Z,4.03
2023-04-26T04:34:54.270Z,3.88
2023-04-26T04:39:55.699Z,3.88
2023-04-26T04:44:57.528Z,4.18
2023-04-26T04:49:59.056Z,4.30
2023-04-26T04:55:01.155Z,4.38
2023-04-26T05:00:07.922Z,4.43
2023-04-26T05:05:11.071Z,4.72
2023-04-26T05:10:12.771Z,4.55
2023-04-26T05:15:14.316Z,4.03
2023-04-26T05:20:15.834Z,4.22
2023-04-26T05:25:17.524Z,4.30
2023-04-26T05:30:19.139Z,4.50
2023-04-26T05:35:20.520Z,4.18
2023-04-26T05:40:21.801Z,5.05
2023-04-26T05:45:23.292Z,4.10
2023-04-26T05:50:24.873Z,4.30
2023-04-26T05:55:26.306Z,4.60
2023-04-26T06:00:27.643Z,4.50
2023-04-26T06:05:29.311Z,4.65
2023-04-26T06:10:30.714Z,7.55
2023-04-26T06:15:32.076Z,9.60
2023-04-26T06:20:33.562Z,20.20
2023-04-26T06:25:35.017Z,8.80
2023-04-26T06:30:36.675Z,4.95
2023-04-26T06:35:41.508Z,4.47
2023-04-26T06:45:44.080Z,4.85
2023-04-26T06:50:45.462Z,2.47
2023-04-26T06:55:47.016Z,2.05
2023-04-26T07:00:48.319Z,5.40
2023-04-26T07:05:49.665Z,3.63
2023-04-26T07:10:51.710Z,1.55
2023-04-26T07:15:53.349Z,1.38
2023-04-26T07:20:54.706Z,2.00
2023-04-26T07:25:57.825Z,1.80
2023-04-26T07:31:01.196Z,1.35
2023-04-26T07:36:02.892Z,1.00
2023-04-26T07:41:04.953Z,1.33
2023-04-26T07:46:06.383Z,1.98
2023-04-26T07:51:11.988Z,1.35
2023-04-26T07:56:13.562Z,1.33
2023-04-26T08:01:16.729Z,1.20
2023-04-26T08:06:18.408Z,1.42
2023-04-26T08:11:20.071Z,1.90
2023-04-26T08:16:21.418Z,1.70
2023-04-26T08:21:23.119Z,1.50
2023-04-26T08:26:24.987Z,1.92
2023-04-26T08:31:28.091Z,2.00
2023-04-26T08:36:29.519Z,2.28
2023-04-26T08:41:36.868Z,1.98
2023-04-26T08:46:57.896Z,1.80
2023-04-26T08:52:00.553Z,2.58
2023-04-26T08:57:02.759Z,2.25
2023-04-26T09:02:09.748Z,1.75
2023-04-26T09:07:15.852Z,2.33
2023-04-26T09:12:21.236Z,2.35
2023-04-26T09:17:26.827Z,1.80
2023-04-26T09:22:32.487Z,2.15
2023-04-26T09:27:39.189Z,1.88
2023-04-26T09:32:48.205Z,1.80
2023-04-26T09:38:00.179Z,1.92
2023-04-26T09:43:15.417Z,2.00
2023-04-26T09:48:23.148Z,2.17
2023-04-26T09:53:28.156Z,2.00
2023-04-26T09:58:29.678Z,2.22
2023-04-26T10:03:33.936Z,2.22
2023-04-26T10:08:36.757Z,1.90
2023-04-26T10:13:39.787Z,2.30
2023-04-26T10:18:41.238Z,2.30
2023-04-26T10:23:43.512Z,1.80
2023-04-26T10:28:45.145Z,2.17
2023-04-26T10:34:19.660Z,2.08
2023-04-26T10:39:25.170Z,2.50
2023-04-26T10:44:40.937Z,2.38
2023-04-26T10:49:48.422Z,2.22
2023-04-26T10:54:53.434Z,2.10
2023-04-26T11:00:21.030Z,1.40
2023-04-26T11:05:54.255Z,2.25
2023-04-26T11:11:05.068Z,1.83
2023-04-26T11:16:12.009Z,1.92
2023-04-26T11:21:17.556Z,3.13
2023-04-26T11:26:18.976Z,1.63
2023-04-26T11:31:20.698Z,1.38
2023-04-26T11:36:22.624Z,1.60
2023-04-26T11:41:24.627Z,2.00
2023-04-26T11:46:26.591Z,1.70
2023-04-26T11:51:30.672Z,1.50
2023-04-26T11:56:33.245Z,2.33
2023-04-26T12:01:34.760Z,2.67
2023-04-26T12:06:44.313Z,2.17
2023-04-26T12:12:06.369Z,1.77
2023-04-26T12:17:08.138Z,2.33
2023-04-26T12:22:09.719Z,1.92
2023-04-26T12:27:21.819Z,1.98
2023-04-26T12:32:23.791Z,1.75
2023-04-26T12:37:25.136Z,2.08
2023-04-26T12:42:26.682Z,2.13
2023-04-26T12:47:28.030Z,2.25
2023-04-26T12:52:30.267Z,1.42
2023-04-26T12:57:31.609Z,2.28
2023-04-26T13:02:34.961Z,1.88
2023-04-26T13:07:39.302Z,1.70
2023-04-26T13:12:40.977Z,1.63
2023-04-26T13:17:44.428Z,0.98
2023-04-26T13:22:46.086Z,2.05
2023-04-26T13:27:47.526Z,4.45
2023-04-26T13:32:49.458Z,1.58
2023-04-26T13:37:51.162Z,1.58
2023-04-26T13:42:52.551Z,1.58
2023-04-26T13:47:53.999Z,1.50
2023-04-26T13:52:55.450Z,1.50
2023-04-26T13:57:57.337Z,1.33
2023-04-26T14:02:58.855Z,1.45
2023-04-26T14:08:01.113Z,1.55
2023-04-26T14:13:02.842Z,1.25
2023-04-26T14:18:04.321Z,1.40
2023-04-26T14:23:05.775Z,1.70
2023-04-26T14:28:08.728Z,1.55
2023-04-26T14:33:16.169Z,1.50
2023-04-26T14:38:18.520Z,3.00
2023-04-26T14:43:19.925Z,1.85
2023-04-26T14:48:21.524Z,1.38
2023-04-26T14:53:22.862Z,1.63
2023-04-26T14:58:25.213Z,1.73
2023-04-26T15:03:27.862Z,1.67
2023-04-26T15:08:29.364Z,1.67
2023-04-26T15:13:30.702Z,1.80
2023-04-26T15:18:32.318Z,1.30
2023-04-26T15:23:36.262Z,1.73
2023-04-26T15:28:37.671Z,1.42
2023-04-26T15:33:39.099Z,1.45
2023-04-26T15:38:44.733Z,1.92
2023-04-26T15:43:46.055Z,2.15
2023-04-26T15:48:47.648Z,2.47
2023-04-26T15:53:51.031Z,2.42
2023-04-26T15:58:52.506Z,2.00
2023-04-26T16:03:53.917Z,2.20
2023-04-26T16:08:55.864Z,2.13
2023-04-26T16:13:57.233Z,2.08
2023-04-26T16:18:58.706Z,2.17
2023-04-26T16:24:00.204Z,2.13
2023-04-26T16:29:01.758Z,2.20
2023-04-26T16:34:03.257Z,2.25
2023-04-26T16:39:04.678Z,2.50
2023-04-26T16:44:06.148Z,2.67
2023-04-26T16:49:09.655Z,2.05
2023-04-26T16:54:11.316Z,2.03
2023-04-26T16:59:12.716Z,1.90
2023-04-26T17:04:14.209Z,2.72
2023-04-26T17:09:15.833Z,2.65
2023-04-26T17:14:17.249Z,3.70
2023-04-26T17:19:18.590Z,1.80
2023-04-26T17:24:20.151Z,2.20
2023-04-26T17:29:21.457Z,3.28
2023-04-26T17:34:22.766Z,2.42
2023-04-26T17:39:24.821Z,2.65
2023-04-26T17:44:26.205Z,2.85
2023-04-26T17:49:27.573Z,4.00
2023-04-26T17:54:29.355Z,3.05
2023-04-26T17:59:30.643Z,3.13
2023-04-26T18:04:32.088Z,2.63
2023-04-26T18:09:33.696Z,3.42
2023-04-26T18:14:35.114Z,2.55
2023-04-26T18:19:36.641Z,2.60
2023-04-26T18:24:38.193Z,2.83
2023-04-26T18:29:39.852Z,2.80
2023-04-26T18:34:41.617Z,1.90
2023-04-26T18:39:42.973Z,2.42
2023-04-26T18:44:44.417Z,2.22
2023-04-26T18:49:45.689Z,2.75
2023-04-26T18:54:47.009Z,2.40
2023-04-26T18:59:49.400Z,2.67
2023-04-26T19:04:50.916Z,2.83
2023-04-26T19:09:54.526Z,2.22
2023-04-26T19:14:56.711Z,2.50
2023-04-26T19:19:58.084Z,2.30
2023-04-26T19:24:59.474Z,2.42
2023-04-26T19:30:01.338Z,2.90
2023-04-26T19:35:04.799Z,2.55
2023-04-26T19:40:07.420Z,2.97
2023-04-26T19:45:09.256Z,3.42
2023-04-26T19:50:11.462Z,2.95
2023-04-26T19:55:13.529Z,2.92
2023-04-26T20:00:15.907Z,3.38
2023-04-26T20:05:17.532Z,3.20
2023-04-26T20:10:20.256Z,3.05
2023-04-26T20:15:21.767Z,2.92
2023-04-26T20:20:23.271Z,3.40
2023-04-26T20:25:25.600Z,3.75
2023-04-26T20:30:29.611Z,3.78
2023-04-26T20:35:30.942Z,3.42
2023-04-26T20:40:32.470Z,3.53
2023-04-26T20:45:34.113Z,3.10
2023-04-26T20:50:36.709Z,3.70
2023-04-26T20:55:38.285Z,4.78
2023-04-26T21:00:40.312Z,3.50
2023-04-26T21:05:41.727Z,3.08
2023-04-26T21:10:43.170Z,3.10
2023-04-26T21:15:44.563Z,3.08
2023-04-26T21:20:45.883Z,3.22
2023-04-26T21:25:48.224Z,3.80
2023-04-26T21:30:50.349Z,3.90
2023-04-26T21:35:51.836Z,3.83
2023-04-26T21:40:53.199Z,3.65
2023-04-26T21:45:58.486Z,3.95
2023-04-26T21:51:00.059Z,4.90
2023-04-26T21:56:01.451Z,3.97
2023-04-26T22:01:11.313Z,4.70
2023-04-26T22:06:12.745Z,4.18
2023-04-26T22:11:14.291Z,4.10
2023-04-26T22:16:15.651Z,4.07
2023-04-26T22:21:17.088Z,4.03
2023-04-26T22:26:18.422Z,3.42
2023-04-26T22:31:19.866Z,3.50
2023-04-26T22:36:21.812Z,3.50
2023-04-26T22:41:23.556Z,3.60
2023-04-26T22:46:25.123Z,3.60
2023-04-26T22:51:27.780Z,4.03
2023-04-26T22:56:29.102Z,4.40
2023-04-26T23:01:31.204Z,4.07
2023-04-26T23:06:32.562Z,4.30
2023-04-26T23:11:34.140Z,4.15
2023-04-26T23:16:35.797Z,3.60
2023-04-26T23:21:37.275Z,4.45
2023-04-26T23:26:38.734Z,3.97
2023-04-26T23:31:40.158Z,4.38
2023-04-26T23:36:41.553Z,3.95
2023-04-26T23:41:42.925Z,3.35
2023-04-26T23:46:44.283Z,4.15
2023-04-26T23:51:45.659Z,3.50
2023-04-26T23:56:47.055Z,3.08
